Terminal Aerodrome Forecast
Issued by NWS Omaha/Valley, NE

Home | Current Version | Previous Version | Text Only | Print | Product List | Glossary On
Versions: 1 2 3 4 5 6 7 8 9 10 11 12 13 14 15 16 17 18 19 20 21 22 23 24 25 26 27 28 29 30 31 32 33 34 35 36 37 38 39 40 41
000
FTUS43 KOAX 271136
TAFLNK
TAF
KLNK 271136Z 2712/2812 08007KT 6SM -TSRA BR OVC040CB
      TEMPO 2712/2715 3SM TSRA BR OVC007CB
     FM271800 10008KT P6SM OVC025
     FM280000 13008KT 5SM -SHRA BR OVC015
      TEMPO 2803/2807 3SM TSRA BR OVC008CB=

USA.gov is the U.S. government's official web portal to all federal, state and local government web resources and services.